sensor_id;sensor_type;location;lat;lon;timestamp;P1;durP1;ratioP1;P2;durP2;ratioP2
51020;SDS011;38907;45.562;8.856;2023-03-01T00:02:28;36.50;;;22.10;;
51020;SDS011;38907;45.562;8.856;2023-03-01T00:07:30;38.90;;;21.25;;
51020;SDS011;38907;45.562;8.856;2023-03-01T00:12:33;43.28;;;23.02;;
51020;SDS011;38907;45.562;8.856;2023-03-01T00:17:36;44.35;;;21.67;;
51020;SDS011;38907;45.562;8.856;2023-03-01T00:22:38;37.00;;;21.83;;
51020;SDS011;38907;45.562;8.856;2023-03-01T00:27:41;40.67;;;22.45;;
51020;SDS011;38907;45.562;8.856;2023-03-01T00:32:43;37.42;;;20.85;;
51020;SDS011;38907;45.562;8.856;2023-03-01T00:37:45;36.63;;;22.00;;
51020;SDS011;38907;45.562;8.856;2023-03-01T00:42:48;34.22;;;21.10;;
51020;SDS011;38907;45.562;8.856;2023-03-01T00:47:50;37.60;;;22.13;;
51020;SDS011;38907;45.562;8.856;2023-03-01T00:52:53;42.15;;;23.33;;
51020;SDS011;38907;45.562;8.856;2023-03-01T00:57:56;41.95;;;23.38;;
51020;SDS011;38907;45.562;8.856;2023-03-01T01:02:58;38.67;;;22.63;;
51020;SDS011;38907;45.562;8.856;2023-03-01T01:08:00;40.72;;;22.10;;
51020;SDS011;38907;45.562;8.856;2023-03-01T01:13:03;40.67;;;23.90;;
51020;SDS011;38907;45.562;8.856;2023-03-01T01:18:05;42.00;;;22.20;;
51020;SDS011;38907;45.562;8.856;2023-03-01T01:23:08;44.97;;;23.30;;
51020;SDS011;38907;45.562;8.856;2023-03-01T01:28:11;44.67;;;23.75;;
51020;SDS011;38907;45.562;8.856;2023-03-01T01:33:13;39.90;;;22.63;;
51020;SDS011;38907;45.562;8.856;2023-03-01T01:38:15;38.97;;;23.67;;
51020;SDS011;38907;45.562;8.856;2023-03-01T01:43:20;51.65;;;25.40;;
51020;SDS011;38907;45.562;8.856;2023-03-01T01:48:24;45.22;;;23.85;;
51020;SDS011;38907;45.562;8.856;2023-03-01T01:53:40;46.30;;;24.67;;
51020;SDS011;38907;45.562;8.856;2023-03-01T01:58:44;41.90;;;23.83;;
51020;SDS011;38907;45.562;8.856;2023-03-01T02:03:48;41.83;;;23.88;;
51020;SDS011;38907;45.562;8.856;2023-03-01T02:08:50;49.85;;;24.55;;
51020;SDS011;38907;45.562;8.856;2023-03-01T02:13:55;48.55;;;24.50;;
51020;SDS011;38907;45.562;8.856;2023-03-01T02:18:57;44.13;;;24.35;;
51020;SDS011;38907;45.562;8.856;2023-03-01T02:24:01;44.40;;;25.63;;
51020;SDS011;38907;45.562;8.856;2023-03-01T02:29:11;40.38;;;23.40;;
51020;SDS011;38907;45.562;8.856;2023-03-01T02:34:13;50.15;;;26.05;;
51020;SDS011;38907;45.562;8.856;2023-03-01T02:39:26;46.47;;;25.55;;
51020;SDS011;38907;45.562;8.856;2023-03-01T02:44:32;43.53;;;24.88;;
51020;SDS011;38907;45.562;8.856;2023-03-01T02:49:35;45.03;;;24.60;;
51020;SDS011;38907;45.562;8.856;2023-03-01T02:54:39;41.70;;;23.73;;
51020;SDS011;38907;45.562;8.856;2023-03-01T02:59:45;41.38;;;22.45;;
51020;SDS011;38907;45.562;8.856;2023-03-01T03:04:47;43.95;;;24.85;;
51020;SDS011;38907;45.562;8.856;2023-03-01T03:09:49;43.08;;;24.52;;
51020;SDS011;38907;45.562;8.856;2023-03-01T03:14:52;42.75;;;23.25;;
51020;SDS011;38907;45.562;8.856;2023-03-01T03:19:54;42.13;;;23.67;;
51020;SDS011;38907;45.562;8.856;2023-03-01T03:24:56;40.80;;;22.88;;
51020;SDS011;38907;45.562;8.856;2023-03-01T03:29:59;41.78;;;22.17;;
51020;SDS011;38907;45.562;8.856;2023-03-01T03:35:01;43.90;;;24.80;;
51020;SDS011;38907;45.562;8.856;2023-03-01T03:40:09;40.67;;;22.30;;
51020;SDS011;38907;45.562;8.856;2023-03-01T03:45:16;43.05;;;23.95;;
51020;SDS011;38907;45.562;8.856;2023-03-01T03:50:18;44.92;;;25.08;;
51020;SDS011;38907;45.562;8.856;2023-03-01T03:55:20;44.38;;;24.73;;
51020;SDS011;38907;45.562;8.856;2023-03-01T04:00:23;38.17;;;21.40;;
51020;SDS011;38907;45.562;8.856;2023-03-01T04:05:26;40.03;;;22.63;;
51020;SDS011;38907;45.562;8.856;2023-03-01T04:10:28;41.17;;;23.13;;
51020;SDS011;38907;45.562;8.856;2023-03-01T04:15:33;42.33;;;23.67;;
51020;SDS011;38907;45.562;8.856;2023-03-01T04:25:37;42.75;;;23.27;;
51020;SDS011;38907;45.562;8.856;2023-03-01T04:30:41;45.07;;;23.53;;
51020;SDS011;38907;45.562;8.856;2023-03-01T04:35:43;38.10;;;22.23;;
51020;SDS011;38907;45.562;8.856;2023-03-01T04:40:45;39.58;;;22.38;;
51020;SDS011;38907;45.562;8.856;2023-03-01T04:45:49;42.13;;;23.52;;
51020;SDS011;38907;45.562;8.856;2023-03-01T04:50:50;40.45;;;21.60;;
51020;SDS011;38907;45.562;8.856;2023-03-01T04:55:53;44.85;;;23.73;;
51020;SDS011;38907;45.562;8.856;2023-03-01T05:00:56;43.55;;;24.13;;
51020;SDS011;38907;45.562;8.856;2023-03-01T05:05:58;44.65;;;23.85;;
51020;SDS011;38907;45.562;8.856;2023-03-01T05:11:00;40.83;;;22.60;;
51020;SDS011;38907;45.562;8.856;2023-03-01T05:16:04;38.03;;;22.13;;
51020;SDS011;38907;45.562;8.856;2023-03-01T05:21:11;39.92;;;23.33;;
51020;SDS011;38907;45.562;8.856;2023-03-01T05:26:16;72.40;;;34.80;;
51020;SDS011;38907;45.562;8.856;2023-03-01T05:31:23;79.20;;;39.65;;
51020;SDS011;38907;45.562;8.856;2023-03-01T05:36:24;68.30;;;35.67;;
51020;SDS011;38907;45.562;8.856;2023-03-01T05:41:26;61.05;;;35.47;;
51020;SDS011;38907;45.562;8.856;2023-03-01T05:46:30;48.60;;;24.65;;
51020;SDS011;38907;45.562;8.856;2023-03-01T05:51:31;48.75;;;27.75;;
51020;SDS011;38907;45.562;8.856;2023-03-01T05:56:34;44.17;;;23.75;;
51020;SDS011;38907;45.562;8.856;2023-03-01T06:01:38;52.40;;;26.05;;
51020;SDS011;38907;45.562;8.856;2023-03-01T06:06:39;50.40;;;28.20;;
51020;SDS011;38907;45.562;8.856;2023-03-01T06:11:41;52.65;;;27.45;;
51020;SDS011;38907;45.562;8.856;2023-03-01T06:16:45;51.17;;;27.13;;
51020;SDS011;38907;45.562;8.856;2023-03-01T06:21:47;44.42;;;26.55;;
51020;SDS011;38907;45.562;8.856;2023-03-01T06:26:49;47.35;;;25.58;;
51020;SDS011;38907;45.562;8.856;2023-03-01T06:31:52;45.63;;;27.20;;
51020;SDS011;38907;45.562;8.856;2023-03-01T06:36:54;59.67;;;35.35;;
51020;SDS011;38907;45.562;8.856;2023-03-01T06:41:55;67.22;;;37.67;;
51020;SDS011;38907;45.562;8.856;2023-03-01T06:46:59;50.78;;;30.40;;
51020;SDS011;38907;45.562;8.856;2023-03-01T06:52:00;56.85;;;33.42;;
51020;SDS011;38907;45.562;8.856;2023-03-01T06:57:02;50.70;;;28.90;;
51020;SDS011;38907;45.562;8.856;2023-03-01T07:02:05;52.38;;;29.33;;
51020;SDS011;38907;45.562;8.856;2023-03-01T07:07:07;52.20;;;28.00;;
51020;SDS011;38907;45.562;8.856;2023-03-01T07:12:10;55.08;;;30.30;;
51020;SDS011;38907;45.562;8.856;2023-03-01T07:17:13;47.22;;;27.10;;
51020;SDS011;38907;45.562;8.856;2023-03-01T07:22:15;48.83;;;26.58;;
51020;SDS011;38907;45.562;8.856;2023-03-01T07:27:17;47.08;;;26.88;;
51020;SDS011;38907;45.562;8.856;2023-03-01T07:32:20;56.63;;;26.83;;
51020;SDS011;38907;45.562;8.856;2023-03-01T07:37:22;46.72;;;26.00;;
51020;SDS011;38907;45.562;8.856;2023-03-01T07:42:24;52.70;;;27.88;;
51020;SDS011;38907;45.562;8.856;2023-03-01T07:47:27;51.67;;;29.00;;
51020;SDS011;38907;45.562;8.856;2023-03-01T07:52:29;53.22;;;28.08;;
51020;SDS011;38907;45.562;8.856;2023-03-01T07:57:31;49.42;;;27.70;;
51020;SDS011;38907;45.562;8.856;2023-03-01T08:02:34;53.00;;;29.38;;
51020;SDS011;38907;45.562;8.856;2023-03-01T08:07:36;56.03;;;29.73;;
51020;SDS011;38907;45.562;8.856;2023-03-01T08:12:38;52.85;;;29.40;;
51020;SDS011;38907;45.562;8.856;2023-03-01T08:17:42;55.58;;;30.52;;
51020;SDS011;38907;45.562;8.856;2023-03-01T08:22:43;52.75;;;28.65;;
51020;SDS011;38907;45.562;8.856;2023-03-01T08:27:45;54.83;;;30.23;;
51020;SDS011;38907;45.562;8.856;2023-03-01T08:32:49;51.25;;;29.75;;
51020;SDS011;38907;45.562;8.856;2023-03-01T08:37:51;49.47;;;28.80;;
51020;SDS011;38907;45.562;8.856;2023-03-01T08:42:53;44.75;;;25.50;;
51020;SDS011;38907;45.562;8.856;2023-03-01T08:47:56;42.13;;;22.52;;
51020;SDS011;38907;45.562;8.856;2023-03-01T08:52:58;33.47;;;18.17;;
51020;SDS011;38907;45.562;8.856;2023-03-01T08:58:00;28.95;;;16.98;;
51020;SDS011;38907;45.562;8.856;2023-03-01T09:03:03;29.13;;;15.10;;
51020;SDS011;38907;45.562;8.856;2023-03-01T09:08:05;36.30;;;14.65;;
51020;SDS011;38907;45.562;8.856;2023-03-01T09:13:08;25.20;;;14.45;;
51020;SDS011;38907;45.562;8.856;2023-03-01T09:18:12;23.92;;;14.50;;
51020;SDS011;38907;45.562;8.856;2023-03-01T09:23:14;27.08;;;13.43;;
51020;SDS011;38907;45.562;8.856;2023-03-01T09:28:15;27.20;;;15.75;;
51020;SDS011;38907;45.562;8.856;2023-03-01T09:33:19;29.85;;;14.80;;
51020;SDS011;38907;45.562;8.856;2023-03-01T09:38:22;29.15;;;15.77;;
51020;SDS011;38907;45.562;8.856;2023-03-01T09:43:31;26.52;;;15.45;;
51020;SDS011;38907;45.562;8.856;2023-03-01T09:48:44;29.37;;;15.13;;
51020;SDS011;38907;45.562;8.856;2023-03-01T09:53:50;26.67;;;14.52;;
51020;SDS011;38907;45.562;8.856;2023-03-01T09:58:54;22.35;;;12.95;;
51020;SDS011;38907;45.562;8.856;2023-03-01T10:04:24;23.38;;;14.00;;
51020;SDS011;38907;45.562;8.856;2023-03-01T10:09:40;29.00;;;14.35;;
51020;SDS011;38907;45.562;8.856;2023-03-01T10:14:48;25.23;;;13.90;;
51020;SDS011;38907;45.562;8.856;2023-03-01T10:20:06;27.02;;;11.68;;
51020;SDS011;38907;45.562;8.856;2023-03-01T10:25:42;20.40;;;11.50;;
51020;SDS011;38907;45.562;8.856;2023-03-01T10:31:09;23.17;;;13.05;;
51020;SDS011;38907;45.562;8.856;2023-03-01T10:36:16;21.48;;;12.48;;
51020;SDS011;38907;45.562;8.856;2023-03-01T10:41:18;26.20;;;12.90;;
51020;SDS011;38907;45.562;8.856;2023-03-01T10:46:27;17.27;;;10.82;;
51020;SDS011;38907;45.562;8.856;2023-03-01T10:51:33;25.70;;;13.07;;
51020;SDS011;38907;45.562;8.856;2023-03-01T10:56:45;20.65;;;12.50;;
51020;SDS011;38907;45.562;8.856;2023-03-01T11:02:00;26.00;;;14.07;;
51020;SDS011;38907;45.562;8.856;2023-03-01T11:07:06;24.60;;;14.70;;
51020;SDS011;38907;45.562;8.856;2023-03-01T11:12:12;25.88;;;14.60;;
51020;SDS011;38907;45.562;8.856;2023-03-01T11:17:17;26.65;;;15.52;;
51020;SDS011;38907;45.562;8.856;2023-03-01T11:22:25;30.27;;;17.05;;
51020;SDS011;38907;45.562;8.856;2023-03-01T11:27:28;31.33;;;16.10;;
51020;SDS011;38907;45.562;8.856;2023-03-01T11:32:34;33.20;;;17.45;;
51020;SDS011;38907;45.562;8.856;2023-03-01T11:37:53;30.80;;;16.60;;
51020;SDS011;38907;45.562;8.856;2023-03-01T11:43:02;40.75;;;16.85;;
51020;SDS011;38907;45.562;8.856;2023-03-01T11:48:18;30.27;;;17.20;;
51020;SDS011;38907;45.562;8.856;2023-03-01T11:53:48;39.22;;;17.95;;
51020;SDS011;38907;45.562;8.856;2023-03-01T11:59:02;36.33;;;18.30;;
51020;SDS011;38907;45.562;8.856;2023-03-01T12:04:30;29.80;;;15.98;;
51020;SDS011;38907;45.562;8.856;2023-03-01T12:10:02;29.70;;;15.95;;
51020;SDS011;38907;45.562;8.856;2023-03-01T12:15:40;28.08;;;15.68;;
51020;SDS011;38907;45.562;8.856;2023-03-01T12:20:51;21.25;;;14.10;;
51020;SDS011;38907;45.562;8.856;2023-03-01T12:26:06;23.43;;;14.47;;
51020;SDS011;38907;45.562;8.856;2023-03-01T12:37:11;28.73;;;15.70;;
51020;SDS011;38907;45.562;8.856;2023-03-01T12:42:25;39.97;;;16.67;;
51020;SDS011;38907;45.562;8.856;2023-03-01T12:47:39;25.85;;;15.30;;
51020;SDS011;38907;45.562;8.856;2023-03-01T12:52:53;26.02;;;15.13;;
51020;SDS011;38907;45.562;8.856;2023-03-01T12:58:00;44.78;;;17.70;;
51020;SDS011;38907;45.562;8.856;2023-03-01T13:03:12;40.15;;;17.98;;
51020;SDS011;38907;45.562;8.856;2023-03-01T13:08:26;40.75;;;18.77;;
51020;SDS011;38907;45.562;8.856;2023-03-01T13:13:34;25.00;;;15.55;;
51020;SDS011;38907;45.562;8.856;2023-03-01T13:18:36;26.25;;;16.35;;
51020;SDS011;38907;45.562;8.856;2023-03-01T13:23:38;29.10;;;15.40;;
51020;SDS011;38907;45.562;8.856;2023-03-01T13:28:50;26.33;;;14.90;;
51020;SDS011;38907;45.562;8.856;2023-03-01T13:33:53;25.45;;;15.13;;
51020;SDS011;38907;45.562;8.856;2023-03-01T13:38:55;31.55;;;16.92;;
51020;SDS011;38907;45.562;8.856;2023-03-01T13:49:02;30.67;;;15.35;;
51020;SDS011;38907;45.562;8.856;2023-03-01T13:54:04;30.27;;;16.00;;
51020;SDS011;38907;45.562;8.856;2023-03-01T13:59:12;25.75;;;15.10;;
51020;SDS011;38907;45.562;8.856;2023-03-01T14:04:19;26.88;;;15.65;;
51020;SDS011;38907;45.562;8.856;2023-03-01T14:09:23;26.30;;;14.93;;
51020;SDS011;38907;45.562;8.856;2023-03-01T14:19:57;27.98;;;15.80;;
51020;SDS011;38907;45.562;8.856;2023-03-01T14:25:01;28.35;;;16.10;;
51020;SDS011;38907;45.562;8.856;2023-03-01T14:30:12;26.90;;;15.63;;
51020;SDS011;38907;45.562;8.856;2023-03-01T14:35:20;28.15;;;15.55;;
51020;SDS011;38907;45.562;8.856;2023-03-01T14:40:24;32.92;;;15.80;;
51020;SDS011;38907;45.562;8.856;2023-03-01T14:45:29;30.10;;;16.08;;
51020;SDS011;38907;45.562;8.856;2023-03-01T14:50:32;28.50;;;15.43;;
51020;SDS011;38907;45.562;8.856;2023-03-01T14:55:37;27.40;;;14.88;;
51020;SDS011;38907;45.562;8.856;2023-03-01T15:00:46;26.15;;;14.38;;
51020;SDS011;38907;45.562;8.856;2023-03-01T15:05:51;37.72;;;16.15;;
51020;SDS011;38907;45.562;8.856;2023-03-01T15:10:57;31.87;;;16.17;;
51020;SDS011;38907;45.562;8.856;2023-03-01T15:16:04;34.60;;;16.73;;
51020;SDS011;38907;45.562;8.856;2023-03-01T15:21:09;31.58;;;17.52;;
51020;SDS011;38907;45.562;8.856;2023-03-01T15:26:23;28.58;;;16.23;;
51020;SDS011;38907;45.562;8.856;2023-03-01T15:31:28;32.03;;;16.52;;
51020;SDS011;38907;45.562;8.856;2023-03-01T15:36:39;32.20;;;16.85;;
51020;SDS011;38907;45.562;8.856;2023-03-01T15:41:46;34.22;;;17.20;;
51020;SDS011;38907;45.562;8.856;2023-03-01T15:46:50;28.27;;;16.17;;
51020;SDS011;38907;45.562;8.856;2023-03-01T15:51:52;28.33;;;15.73;;
51020;SDS011;38907;45.562;8.856;2023-03-01T15:56:56;31.42;;;16.58;;
51020;SDS011;38907;45.562;8.856;2023-03-01T16:01:59;33.30;;;18.15;;
51020;SDS011;38907;45.562;8.856;2023-03-01T16:07:01;30.17;;;17.77;;
51020;SDS011;38907;45.562;8.856;2023-03-01T16:12:03;31.92;;;16.73;;
51020;SDS011;38907;45.562;8.856;2023-03-01T16:22:10;34.60;;;16.95;;
51020;SDS011;38907;45.562;8.856;2023-03-01T16:27:12;33.78;;;17.90;;
51020;SDS011;38907;45.562;8.856;2023-03-01T16:32:17;30.50;;;17.60;;
51020;SDS011;38907;45.562;8.856;2023-03-01T16:42:22;28.48;;;16.55;;
51020;SDS011;38907;45.562;8.856;2023-03-01T16:47:25;34.05;;;17.60;;
51020;SDS011;38907;45.562;8.856;2023-03-01T16:52:28;30.80;;;17.40;;
51020;SDS011;38907;45.562;8.856;2023-03-01T16:57:30;34.13;;;18.77;;
51020;SDS011;38907;45.562;8.856;2023-03-01T17:02:35;32.65;;;18.77;;
51020;SDS011;38907;45.562;8.856;2023-03-01T17:07:38;36.10;;;18.15;;
51020;SDS011;38907;45.562;8.856;2023-03-01T17:12:43;34.33;;;18.98;;
51020;SDS011;38907;45.562;8.856;2023-03-01T17:17:48;31.13;;;17.90;;
51020;SDS011;38907;45.562;8.856;2023-03-01T17:22:56;32.72;;;17.83;;
51020;SDS011;38907;45.562;8.856;2023-03-01T17:27:58;32.90;;;18.45;;
51020;SDS011;38907;45.562;8.856;2023-03-01T17:33:02;30.75;;;17.02;;
51020;SDS011;38907;45.562;8.856;2023-03-01T17:38:04;27.77;;;14.38;;
51020;SDS011;38907;45.562;8.856;2023-03-01T17:43:06;30.80;;;16.63;;
51020;SDS011;38907;45.562;8.856;2023-03-01T17:48:10;48.50;;;27.25;;
51020;SDS011;38907;45.562;8.856;2023-03-01T17:53:12;33.97;;;19.85;;
51020;SDS011;38907;45.562;8.856;2023-03-01T17:58:14;32.40;;;16.38;;
51020;SDS011;38907;45.562;8.856;2023-03-01T18:03:23;31.90;;;18.50;;
51020;SDS011;38907;45.562;8.856;2023-03-01T18:08:24;29.80;;;15.77;;
51020;SDS011;38907;45.562;8.856;2023-03-01T18:13:27;32.63;;;16.38;;
51020;SDS011;38907;45.562;8.856;2023-03-01T18:18:30;33.53;;;20.10;;
51020;SDS011;38907;45.562;8.856;2023-03-01T18:23:33;28.63;;;16.88;;
51020;SDS011;38907;45.562;8.856;2023-03-01T18:28:36;29.02;;;16.02;;
51020;SDS011;38907;45.562;8.856;2023-03-01T18:33:41;26.67;;;15.40;;
51020;SDS011;38907;45.562;8.856;2023-03-01T18:38:42;31.45;;;16.85;;
51020;SDS011;38907;45.562;8.856;2023-03-01T18:43:44;29.77;;;18.48;;
51020;SDS011;38907;45.562;8.856;2023-03-01T18:48:48;35.35;;;18.77;;
51020;SDS011;38907;45.562;8.856;2023-03-01T18:53:49;32.38;;;17.67;;
51020;SDS011;38907;45.562;8.856;2023-03-01T18:58:51;30.92;;;17.55;;
51020;SDS011;38907;45.562;8.856;2023-03-01T19:03:55;32.08;;;18.55;;
51020;SDS011;38907;45.562;8.856;2023-03-01T19:08:57;35.95;;;19.63;;
51020;SDS011;38907;45.562;8.856;2023-03-01T19:13:59;33.15;;;19.45;;
51020;SDS011;38907;45.562;8.856;2023-03-01T19:19:03;42.40;;;21.75;;
51020;SDS011;38907;45.562;8.856;2023-03-01T19:24:07;30.90;;;17.55;;
51020;SDS011;38907;45.562;8.856;2023-03-01T19:29:10;34.40;;;19.70;;
51020;SDS011;38907;45.562;8.856;2023-03-01T19:34:13;34.50;;;19.80;;
51020;SDS011;38907;45.562;8.856;2023-03-01T19:44:17;34.25;;;20.35;;
51020;SDS011;38907;45.562;8.856;2023-03-01T19:49:25;39.28;;;22.50;;
51020;SDS011;38907;45.562;8.856;2023-03-01T19:54:28;37.60;;;20.98;;
51020;SDS011;38907;45.562;8.856;2023-03-01T19:59:30;35.95;;;21.15;;
51020;SDS011;38907;45.562;8.856;2023-03-01T20:04:33;35.95;;;21.80;;
51020;SDS011;38907;45.562;8.856;2023-03-01T20:09:35;46.13;;;24.73;;
51020;SDS011;38907;45.562;8.856;2023-03-01T20:14:38;41.47;;;22.90;;
51020;SDS011;38907;45.562;8.856;2023-03-01T20:19:41;40.97;;;22.13;;
51020;SDS011;38907;45.562;8.856;2023-03-01T20:24:43;40.38;;;23.52;;
51020;SDS011;38907;45.562;8.856;2023-03-01T20:29:45;47.75;;;24.50;;
51020;SDS011;38907;45.562;8.856;2023-03-01T20:34:49;43.55;;;24.33;;
51020;SDS011;38907;45.562;8.856;2023-03-01T20:39:51;41.70;;;22.98;;
51020;SDS011;38907;45.562;8.856;2023-03-01T20:44:52;35.60;;;21.65;;
51020;SDS011;38907;45.562;8.856;2023-03-01T20:49:56;34.92;;;21.20;;
51020;SDS011;38907;45.562;8.856;2023-03-01T20:55:00;42.97;;;24.38;;
51020;SDS011;38907;45.562;8.856;2023-03-01T21:00:02;40.28;;;22.52;;
51020;SDS011;38907;45.562;8.856;2023-03-01T21:05:08;42.42;;;22.75;;
51020;SDS011;38907;45.562;8.856;2023-03-01T21:10:10;34.88;;;20.33;;
51020;SDS011;38907;45.562;8.856;2023-03-01T21:15:12;32.13;;;18.17;;
51020;SDS011;38907;45.562;8.856;2023-03-01T21:20:16;32.90;;;18.88;;
51020;SDS011;38907;45.562;8.856;2023-03-01T21:25:19;33.72;;;19.38;;
51020;SDS011;38907;45.562;8.856;2023-03-01T21:30:21;31.45;;;18.77;;
51020;SDS011;38907;45.562;8.856;2023-03-01T21:35:24;26.90;;;17.00;;
51020;SDS011;38907;45.562;8.856;2023-03-01T21:40:26;26.95;;;16.92;;
51020;SDS011;38907;45.562;8.856;2023-03-01T21:45:28;31.50;;;17.85;;
51020;SDS011;38907;45.562;8.856;2023-03-01T21:50:31;32.47;;;18.02;;
51020;SDS011;38907;45.562;8.856;2023-03-01T21:55:33;29.00;;;17.90;;
51020;SDS011;38907;45.562;8.856;2023-03-01T22:00:35;32.80;;;19.77;;
51020;SDS011;38907;45.562;8.856;2023-03-01T22:05:40;35.40;;;20.38;;
51020;SDS011;38907;45.562;8.856;2023-03-01T22:10:41;33.33;;;19.58;;
51020;SDS011;38907;45.562;8.856;2023-03-01T22:15:43;36.45;;;20.33;;
51020;SDS011;38907;45.562;8.856;2023-03-01T22:20:47;38.20;;;20.33;;
51020;SDS011;38907;45.562;8.856;2023-03-01T22:25:49;35.92;;;19.35;;
51020;SDS011;38907;45.562;8.856;2023-03-01T22:30:50;37.17;;;20.85;;
51020;SDS011;38907;45.562;8.856;2023-03-01T22:35:54;42.58;;;22.30;;
51020;SDS011;38907;45.562;8.856;2023-03-01T22:40:57;33.83;;;19.80;;
51020;SDS011;38907;45.562;8.856;2023-03-01T22:46:07;36.35;;;21.52;;
51020;SDS011;38907;45.562;8.856;2023-03-01T22:51:14;44.85;;;24.25;;
51020;SDS011;38907;45.562;8.856;2023-03-01T22:56:17;38.70;;;21.65;;
51020;SDS011;38907;45.562;8.856;2023-03-01T23:01:21;37.08;;;21.38;;
51020;SDS011;38907;45.562;8.856;2023-03-01T23:06:25;40.42;;;20.35;;
51020;SDS011;38907;45.562;8.856;2023-03-01T23:11:29;36.75;;;21.10;;
51020;SDS011;38907;45.562;8.856;2023-03-01T23:16:31;33.10;;;19.83;;
51020;SDS011;38907;45.562;8.856;2023-03-01T23:21:35;33.38;;;20.52;;
51020;SDS011;38907;45.562;8.856;2023-03-01T23:26:37;34.22;;;19.73;;
51020;SDS011;38907;45.562;8.856;2023-03-01T23:31:39;34.03;;;20.15;;
51020;SDS011;38907;45.562;8.856;2023-03-01T23:36:42;36.13;;;20.00;;
51020;SDS011;38907;45.562;8.856;2023-03-01T23:46:47;34.55;;;21.23;;
51020;SDS011;38907;45.562;8.856;2023-03-01T23:51:51;36.03;;;21.45;;
51020;SDS011;38907;45.562;8.856;2023-03-01T23:56:53;32.75;;;20.35;;
